sensor_id;sensor_type;location;lat;lon;timestamp;P1;durP1;ratioP1;P2;durP2;ratioP2
50591;SDS011;36548;50.506;30.834;2022-08-21T00:01:26;16.15;;;4.75;;
50591;SDS011;36548;50.506;30.834;2022-08-21T00:02:45;14.85;;;4.72;;
50591;SDS011;36548;50.506;30.834;2022-08-21T00:03:56;16.05;;;4.63;;
50591;SDS011;36548;50.506;30.834;2022-08-21T00:05:12;13.35;;;4.97;;
50591;SDS011;36548;50.506;30.834;2022-08-21T00:06:23;17.00;;;5.25;;
50591;SDS011;36548;50.506;30.834;2022-08-21T00:07:32;14.28;;;5.12;;
50591;SDS011;36548;50.506;30.834;2022-08-21T00:08:47;13.17;;;5.05;;
50591;SDS011;36548;50.506;30.834;2022-08-21T00:09:56;15.57;;;6.07;;
50591;SDS011;36548;50.506;30.834;2022-08-21T00:11:13;22.77;;;5.65;;
50591;SDS011;36548;50.506;30.834;2022-08-21T00:12:22;14.58;;;5.17;;
50591;SDS011;36548;50.506;30.834;2022-08-21T00:13:31;14.47;;;5.18;;
50591;SDS011;36548;50.506;30.834;2022-08-21T00:14:42;12.78;;;6.10;;
50591;SDS011;36548;50.506;30.834;2022-08-21T00:15:54;16.35;;;6.40;;
50591;SDS011;36548;50.506;30.834;2022-08-21T00:17:09;15.28;;;5.47;;
50591;SDS011;36548;50.506;30.834;2022-08-21T00:18:19;17.85;;;5.60;;
50591;SDS011;36548;50.506;30.834;2022-08-21T00:19:34;17.42;;;5.30;;
50591;SDS011;36548;50.506;30.834;2022-08-21T00:20:44;14.20;;;4.65;;
50591;SDS011;36548;50.506;30.834;2022-08-21T00:22:14;12.90;;;4.90;;
50591;SDS011;36548;50.506;30.834;2022-08-21T00:23:24;10.18;;;4.37;;
50591;SDS011;36548;50.506;30.834;2022-08-21T00:24:35;13.87;;;4.08;;
50591;SDS011;36548;50.506;30.834;2022-08-21T00:25:45;15.17;;;3.88;;
50591;SDS011;36548;50.506;30.834;2022-08-21T00:27:01;15.53;;;3.87;;
50591;SDS011;36548;50.506;30.834;2022-08-21T00:28:11;13.10;;;4.68;;
50591;SDS011;36548;50.506;30.834;2022-08-21T00:29:27;15.38;;;4.83;;
50591;SDS011;36548;50.506;30.834;2022-08-21T00:30:39;12.33;;;5.12;;
50591;SDS011;36548;50.506;30.834;2022-08-21T00:31:55;11.92;;;5.00;;
50591;SDS011;36548;50.506;30.834;2022-08-21T00:33:04;19.95;;;4.92;;
50591;SDS011;36548;50.506;30.834;2022-08-21T00:34:32;12.50;;;5.08;;
50591;SDS011;36548;50.506;30.834;2022-08-21T00:35:47;20.32;;;5.28;;
50591;SDS011;36548;50.506;30.834;2022-08-21T00:36:58;16.30;;;5.80;;
50591;SDS011;36548;50.506;30.834;2022-08-21T00:38:14;13.37;;;5.12;;
50591;SDS011;36548;50.506;30.834;2022-08-21T00:39:23;15.15;;;5.73;;
50591;SDS011;36548;50.506;30.834;2022-08-21T00:40:54;14.25;;;5.70;;
50591;SDS011;36548;50.506;30.834;2022-08-21T00:42:08;12.30;;;5.00;;
50591;SDS011;36548;50.506;30.834;2022-08-21T00:43:19;22.98;;;5.80;;
50591;SDS011;36548;50.506;30.834;2022-08-21T00:44:32;14.90;;;6.30;;
50591;SDS011;36548;50.506;30.834;2022-08-21T00:45:42;17.22;;;6.02;;
50591;SDS011;36548;50.506;30.834;2022-08-21T00:46:53;13.85;;;5.65;;
50591;SDS011;36548;50.506;30.834;2022-08-21T00:48:04;14.50;;;5.85;;
50591;SDS011;36548;50.506;30.834;2022-08-21T00:49:19;13.12;;;5.63;;
50591;SDS011;36548;50.506;30.834;2022-08-21T00:50:31;18.13;;;5.32;;
50591;SDS011;36548;50.506;30.834;2022-08-21T00:51:44;12.83;;;4.55;;
50591;SDS011;36548;50.506;30.834;2022-08-21T00:53:00;12.78;;;4.48;;
50591;SDS011;36548;50.506;30.834;2022-08-21T00:54:12;11.45;;;3.90;;
50591;SDS011;36548;50.506;30.834;2022-08-21T00:55:25;11.60;;;3.80;;
50591;SDS011;36548;50.506;30.834;2022-08-21T00:56:38;11.70;;;4.28;;
50591;SDS011;36548;50.506;30.834;2022-08-21T00:57:52;13.18;;;4.35;;
50591;SDS011;36548;50.506;30.834;2022-08-21T00:59:04;13.02;;;4.93;;
50591;SDS011;36548;50.506;30.834;2022-08-21T01:00:17;13.42;;;4.33;;
50591;SDS011;36548;50.506;30.834;2022-08-21T01:01:35;13.22;;;4.62;;
50591;SDS011;36548;50.506;30.834;2022-08-21T01:02:45;15.35;;;5.35;;
50591;SDS011;36548;50.506;30.834;2022-08-21T01:04:02;13.20;;;5.30;;
50591;SDS011;36548;50.506;30.834;2022-08-21T01:05:13;11.93;;;4.78;;
50591;SDS011;36548;50.506;30.834;2022-08-21T01:06:25;15.88;;;5.82;;
50591;SDS011;36548;50.506;30.834;2022-08-21T01:08:47;11.73;;;5.23;;
50591;SDS011;36548;50.506;30.834;2022-08-21T01:09:56;12.67;;;5.63;;
50591;SDS011;36548;50.506;30.834;2022-08-21T01:11:14;20.15;;;6.43;;
50591;SDS011;36548;50.506;30.834;2022-08-21T01:12:25;17.10;;;5.60;;
50591;SDS011;36548;50.506;30.834;2022-08-21T01:13:41;16.22;;;5.87;;
50591;SDS011;36548;50.506;30.834;2022-08-21T01:14:55;16.65;;;5.20;;
50591;SDS011;36548;50.506;30.834;2022-08-21T01:16:25;9.87;;;3.80;;
50591;SDS011;36548;50.506;30.834;2022-08-21T01:17:41;10.72;;;4.13;;
50591;SDS011;36548;50.506;30.834;2022-08-21T01:18:51;11.70;;;4.75;;
50591;SDS011;36548;50.506;30.834;2022-08-21T01:20:08;13.05;;;4.38;;
50591;SDS011;36548;50.506;30.834;2022-08-21T01:21:23;14.53;;;4.25;;
50591;SDS011;36548;50.506;30.834;2022-08-21T01:22:53;11.23;;;4.20;;
50591;SDS011;36548;50.506;30.834;2022-08-21T01:24:08;11.67;;;5.17;;
50591;SDS011;36548;50.506;30.834;2022-08-21T01:25:19;16.10;;;4.53;;
50591;SDS011;36548;50.506;30.834;2022-08-21T01:26:34;16.57;;;5.40;;
50591;SDS011;36548;50.506;30.834;2022-08-21T01:27:45;14.12;;;5.20;;
50591;SDS011;36548;50.506;30.834;2022-08-21T01:30:48;15.10;;;5.17;;
50591;SDS011;36548;50.506;30.834;2022-08-21T01:32:04;14.23;;;5.70;;
50591;SDS011;36548;50.506;30.834;2022-08-21T01:33:14;16.75;;;5.10;;
50591;SDS011;36548;50.506;30.834;2022-08-21T01:34:24;13.65;;;4.75;;
50591;SDS011;36548;50.506;30.834;2022-08-21T01:35:34;14.90;;;5.50;;
50591;SDS011;36548;50.506;30.834;2022-08-21T01:36:45;13.33;;;5.23;;
50591;SDS011;36548;50.506;30.834;2022-08-21T01:37:57;12.93;;;5.68;;
50591;SDS011;36548;50.506;30.834;2022-08-21T01:39:06;14.73;;;5.30;;
50591;SDS011;36548;50.506;30.834;2022-08-21T01:41:38;13.93;;;5.53;;
50591;SDS011;36548;50.506;30.834;2022-08-21T01:43:14;18.75;;;5.50;;
50591;SDS011;36548;50.506;30.834;2022-08-21T01:44:25;19.10;;;5.02;;
50591;SDS011;36548;50.506;30.834;2022-08-21T01:45:35;20.43;;;6.33;;
50591;SDS011;36548;50.506;30.834;2022-08-21T01:46:46;15.50;;;5.76;;
50591;SDS011;36548;50.506;30.834;2022-08-21T01:47:55;14.00;;;5.17;;
50591;SDS011;36548;50.506;30.834;2022-08-21T01:49:05;12.00;;;5.67;;
50591;SDS011;36548;50.506;30.834;2022-08-21T01:50:17;13.88;;;5.87;;
50591;SDS011;36548;50.506;30.834;2022-08-21T01:51:34;16.77;;;4.93;;
50591;SDS011;36548;50.506;30.834;2022-08-21T01:52:43;14.18;;;5.42;;
50591;SDS011;36548;50.506;30.834;2022-08-21T01:53:53;16.70;;;5.35;;
50591;SDS011;36548;50.506;30.834;2022-08-21T01:55:08;19.37;;;5.72;;
50591;SDS011;36548;50.506;30.834;2022-08-21T01:56:19;19.38;;;5.72;;
50591;SDS011;36548;50.506;30.834;2022-08-21T01:57:29;16.82;;;5.70;;
50591;SDS011;36548;50.506;30.834;2022-08-21T01:59:57;18.62;;;5.37;;
50591;SDS011;36548;50.506;30.834;2022-08-21T02:01:07;12.18;;;5.53;;
50591;SDS011;36548;50.506;30.834;2022-08-21T02:02:24;15.20;;;5.35;;
50591;SDS011;36548;50.506;30.834;2022-08-21T02:03:33;12.58;;;4.70;;
50591;SDS011;36548;50.506;30.834;2022-08-21T02:04:44;12.83;;;5.07;;
50591;SDS011;36548;50.506;30.834;2022-08-21T02:05:59;16.95;;;5.25;;
50591;SDS011;36548;50.506;30.834;2022-08-21T02:07:09;17.57;;;6.07;;
50591;SDS011;36548;50.506;30.834;2022-08-21T02:08:24;17.25;;;5.42;;
50591;SDS011;36548;50.506;30.834;2022-08-21T02:09:35;14.15;;;5.10;;
50591;SDS011;36548;50.506;30.834;2022-08-21T02:11:02;15.23;;;5.92;;
50591;SDS011;36548;50.506;30.834;2022-08-21T02:12:12;17.37;;;6.00;;
50591;SDS011;36548;50.506;30.834;2022-08-21T02:13:22;20.62;;;5.62;;
50591;SDS011;36548;50.506;30.834;2022-08-21T02:14:37;17.08;;;5.60;;
50591;SDS011;36548;50.506;30.834;2022-08-21T02:15:47;15.17;;;5.48;;
50591;SDS011;36548;50.506;30.834;2022-08-21T02:16:58;15.12;;;5.05;;
50591;SDS011;36548;50.506;30.834;2022-08-21T02:18:09;16.00;;;5.50;;
50591;SDS011;36548;50.506;30.834;2022-08-21T02:19:24;17.68;;;5.30;;
50591;SDS011;36548;50.506;30.834;2022-08-21T02:20:36;15.42;;;5.88;;
50591;SDS011;36548;50.506;30.834;2022-08-21T02:21:47;16.52;;;4.95;;
50591;SDS011;36548;50.506;30.834;2022-08-21T02:22:56;17.93;;;5.87;;
50591;SDS011;36548;50.506;30.834;2022-08-21T02:24:12;13.90;;;5.25;;
50591;SDS011;36548;50.506;30.834;2022-08-21T02:25:23;16.15;;;5.20;;
50591;SDS011;36548;50.506;30.834;2022-08-21T02:26:36;14.20;;;5.68;;
50591;SDS011;36548;50.506;30.834;2022-08-21T02:27:46;18.18;;;8.22;;
50591;SDS011;36548;50.506;30.834;2022-08-21T02:28:58;15.33;;;6.80;;
50591;SDS011;36548;50.506;30.834;2022-08-21T02:31:28;16.20;;;6.07;;
50591;SDS011;36548;50.506;30.834;2022-08-21T02:32:38;19.33;;;6.63;;
50591;SDS011;36548;50.506;30.834;2022-08-21T02:33:47;19.90;;;7.20;;
50591;SDS011;36548;50.506;30.834;2022-08-21T02:34:57;17.05;;;6.25;;
50591;SDS011;36548;50.506;30.834;2022-08-21T02:36:08;13.30;;;5.60;;
50591;SDS011;36548;50.506;30.834;2022-08-21T02:37:24;20.37;;;6.60;;
50591;SDS011;36548;50.506;30.834;2022-08-21T02:38:34;20.92;;;6.28;;
50591;SDS011;36548;50.506;30.834;2022-08-21T02:39:48;18.37;;;6.17;;
50591;SDS011;36548;50.506;30.834;2022-08-21T02:40:58;20.03;;;6.25;;
50591;SDS011;36548;50.506;30.834;2022-08-21T02:42:14;15.28;;;5.87;;
50591;SDS011;36548;50.506;30.834;2022-08-21T02:43:26;14.92;;;6.63;;
50591;SDS011;36548;50.506;30.834;2022-08-21T02:44:36;21.90;;;7.37;;
50591;SDS011;36548;50.506;30.834;2022-08-21T02:45:45;17.82;;;6.43;;
50591;SDS011;36548;50.506;30.834;2022-08-21T02:46:56;18.58;;;7.25;;
50591;SDS011;36548;50.506;30.834;2022-08-21T02:48:07;15.82;;;6.97;;
50591;SDS011;36548;50.506;30.834;2022-08-21T02:49:19;18.53;;;7.05;;
50591;SDS011;36548;50.506;30.834;2022-08-21T02:50:36;26.02;;;7.90;;
50591;SDS011;36548;50.506;30.834;2022-08-21T02:51:55;17.35;;;6.20;;
50591;SDS011;36548;50.506;30.834;2022-08-21T02:54:22;21.30;;;6.22;;
50591;SDS011;36548;50.506;30.834;2022-08-21T02:55:33;13.65;;;6.25;;
50591;SDS011;36548;50.506;30.834;2022-08-21T02:56:45;15.65;;;6.18;;
50591;SDS011;36548;50.506;30.834;2022-08-21T02:58:01;15.67;;;5.87;;
50591;SDS011;36548;50.506;30.834;2022-08-21T02:59:13;20.93;;;6.60;;
50591;SDS011;36548;50.506;30.834;2022-08-21T03:00:25;20.52;;;6.55;;
50591;SDS011;36548;50.506;30.834;2022-08-21T03:01:37;19.05;;;6.45;;
50591;SDS011;36548;50.506;30.834;2022-08-21T03:02:52;17.78;;;5.82;;
50591;SDS011;36548;50.506;30.834;2022-08-21T03:04:05;16.57;;;5.77;;
50591;SDS011;36548;50.506;30.834;2022-08-21T03:05:15;21.57;;;6.13;;
50591;SDS011;36548;50.506;30.834;2022-08-21T03:06:27;17.70;;;6.90;;
50591;SDS011;36548;50.506;30.834;2022-08-21T03:07:38;25.33;;;8.55;;
50591;SDS011;36548;50.506;30.834;2022-08-21T03:08:53;21.10;;;7.42;;
50591;SDS011;36548;50.506;30.834;2022-08-21T03:10:03;15.50;;;6.80;;
50591;SDS011;36548;50.506;30.834;2022-08-21T03:11:21;19.65;;;7.35;;
50591;SDS011;36548;50.506;30.834;2022-08-21T03:12:31;17.72;;;6.72;;
50591;SDS011;36548;50.506;30.834;2022-08-21T03:13:41;16.22;;;6.48;;
50591;SDS011;36548;50.506;30.834;2022-08-21T03:14:51;17.60;;;6.90;;
50591;SDS011;36548;50.506;30.834;2022-08-21T03:16:00;18.00;;;5.92;;
50591;SDS011;36548;50.506;30.834;2022-08-21T03:17:16;13.30;;;6.70;;
50591;SDS011;36548;50.506;30.834;2022-08-21T03:18:28;18.70;;;8.27;;
50591;SDS011;36548;50.506;30.834;2022-08-21T03:19:38;18.10;;;8.50;;
50591;SDS011;36548;50.506;30.834;2022-08-21T03:20:48;19.15;;;8.12;;
50591;SDS011;36548;50.506;30.834;2022-08-21T03:21:57;24.20;;;7.93;;
50591;SDS011;36548;50.506;30.834;2022-08-21T03:23:13;21.03;;;7.20;;
50591;SDS011;36548;50.506;30.834;2022-08-21T03:24:25;18.45;;;7.80;;
50591;SDS011;36548;50.506;30.834;2022-08-21T03:25:35;17.80;;;7.85;;
50591;SDS011;36548;50.506;30.834;2022-08-21T03:26:51;20.92;;;7.78;;
50591;SDS011;36548;50.506;30.834;2022-08-21T03:28:00;18.25;;;7.57;;
50591;SDS011;36548;50.506;30.834;2022-08-21T03:29:13;18.60;;;8.25;;
50591;SDS011;36548;50.506;30.834;2022-08-21T03:30:24;19.70;;;8.07;;
50591;SDS011;36548;50.506;30.834;2022-08-21T03:31:34;16.50;;;7.30;;
50591;SDS011;36548;50.506;30.834;2022-08-21T03:32:44;19.35;;;7.25;;
50591;SDS011;36548;50.506;30.834;2022-08-21T03:33:55;26.72;;;9.38;;
50591;SDS011;36548;50.506;30.834;2022-08-21T03:35:06;16.78;;;8.53;;
50591;SDS011;36548;50.506;30.834;2022-08-21T03:36:17;16.63;;;7.32;;
50591;SDS011;36548;50.506;30.834;2022-08-21T03:37:27;19.82;;;6.42;;
50591;SDS011;36548;50.506;30.834;2022-08-21T03:38:37;21.10;;;6.55;;
50591;SDS011;36548;50.506;30.834;2022-08-21T03:39:53;19.37;;;7.07;;
50591;SDS011;36548;50.506;30.834;2022-08-21T03:41:03;19.65;;;6.62;;
50591;SDS011;36548;50.506;30.834;2022-08-21T03:42:19;15.85;;;6.45;;
50591;SDS011;36548;50.506;30.834;2022-08-21T03:43:31;19.15;;;6.25;;
50591;SDS011;36548;50.506;30.834;2022-08-21T03:44:59;20.07;;;5.85;;
50591;SDS011;36548;50.506;30.834;2022-08-21T03:46:09;18.75;;;6.20;;
50591;SDS011;36548;50.506;30.834;2022-08-21T03:47:25;19.08;;;6.68;;
50591;SDS011;36548;50.506;30.834;2022-08-21T03:48:34;23.22;;;8.33;;
50591;SDS011;36548;50.506;30.834;2022-08-21T03:49:51;22.35;;;8.50;;
50591;SDS011;36548;50.506;30.834;2022-08-21T03:52:11;13.65;;;6.50;;
50591;SDS011;36548;50.506;30.834;2022-08-21T03:53:26;17.35;;;6.77;;
50591;SDS011;36548;50.506;30.834;2022-08-21T03:54:35;20.23;;;7.27;;
50591;SDS011;36548;50.506;30.834;2022-08-21T03:55:45;19.70;;;6.80;;
50591;SDS011;36548;50.506;30.834;2022-08-21T03:56:56;16.80;;;6.50;;
50591;SDS011;36548;50.506;30.834;2022-08-21T03:58:11;18.83;;;5.80;;
50591;SDS011;36548;50.506;30.834;2022-08-21T03:59:23;14.52;;;6.23;;
50591;SDS011;36548;50.506;30.834;2022-08-21T04:00:35;20.07;;;6.78;;
50591;SDS011;36548;50.506;30.834;2022-08-21T04:01:59;15.50;;;5.90;;
50591;SDS011;36548;50.506;30.834;2022-08-21T04:03:16;21.48;;;7.47;;
50591;SDS011;36548;50.506;30.834;2022-08-21T04:04:27;14.27;;;6.30;;
50591;SDS011;36548;50.506;30.834;2022-08-21T04:05:37;17.72;;;5.75;;
50591;SDS011;36548;50.506;30.834;2022-08-21T04:06:54;13.02;;;5.88;;
50591;SDS011;36548;50.506;30.834;2022-08-21T04:08:06;19.34;;;6.36;;
50591;SDS011;36548;50.506;30.834;2022-08-21T04:09:17;15.68;;;6.72;;
50591;SDS011;36548;50.506;30.834;2022-08-21T04:10:29;20.40;;;6.93;;
50591;SDS011;36548;50.506;30.834;2022-08-21T04:11:46;20.10;;;6.62;;
50591;SDS011;36548;50.506;30.834;2022-08-21T04:12:56;17.23;;;6.65;;
50591;SDS011;36548;50.506;30.834;2022-08-21T04:15:16;17.15;;;5.60;;
50591;SDS011;36548;50.506;30.834;2022-08-21T04:16:26;18.45;;;7.10;;
50591;SDS011;36548;50.506;30.834;2022-08-21T04:18:01;17.73;;;6.73;;
50591;SDS011;36548;50.506;30.834;2022-08-21T04:19:11;18.13;;;7.02;;
50591;SDS011;36548;50.506;30.834;2022-08-21T04:20:30;17.28;;;7.15;;
50591;SDS011;36548;50.506;30.834;2022-08-21T04:21:40;19.75;;;6.55;;
50591;SDS011;36548;50.506;30.834;2022-08-21T04:22:56;15.50;;;6.13;;
50591;SDS011;36548;50.506;30.834;2022-08-21T04:24:07;15.97;;;6.75;;
50591;SDS011;36548;50.506;30.834;2022-08-21T04:25:35;15.48;;;6.47;;
50591;SDS011;36548;50.506;30.834;2022-08-21T04:26:46;19.05;;;6.52;;
50591;SDS011;36548;50.506;30.834;2022-08-21T04:27:56;14.82;;;6.43;;
50591;SDS011;36548;50.506;30.834;2022-08-21T04:30:18;18.52;;;6.20;;
50591;SDS011;36548;50.506;30.834;2022-08-21T04:31:35;13.85;;;6.10;;
50591;SDS011;36548;50.506;30.834;2022-08-21T04:32:47;16.65;;;6.37;;
50591;SDS011;36548;50.506;30.834;2022-08-21T04:33:59;15.40;;;6.25;;
50591;SDS011;36548;50.506;30.834;2022-08-21T04:35:09;12.65;;;5.87;;
50591;SDS011;36548;50.506;30.834;2022-08-21T04:36:25;14.90;;;5.85;;
50591;SDS011;36548;50.506;30.834;2022-08-21T04:37:35;15.95;;;6.40;;
50591;SDS011;36548;50.506;30.834;2022-08-21T04:38:47;15.28;;;5.85;;
50591;SDS011;36548;50.506;30.834;2022-08-21T04:39:56;16.54;;;5.92;;
50591;SDS011;36548;50.506;30.834;2022-08-21T04:41:12;17.60;;;5.70;;
50591;SDS011;36548;50.506;30.834;2022-08-21T04:42:22;17.45;;;5.55;;
50591;SDS011;36548;50.506;30.834;2022-08-21T04:43:39;13.70;;;5.48;;
50591;SDS011;36548;50.506;30.834;2022-08-21T04:44:51;14.40;;;5.30;;
50591;SDS011;36548;50.506;30.834;2022-08-21T04:46:19;14.97;;;5.20;;
50591;SDS011;36548;50.506;30.834;2022-08-21T04:47:31;16.67;;;5.28;;
50591;SDS011;36548;50.506;30.834;2022-08-21T04:50:19;17.02;;;5.30;;
50591;SDS011;36548;50.506;30.834;2022-08-21T04:51:33;14.48;;;5.10;;
50591;SDS011;36548;50.506;30.834;2022-08-21T04:52:46;12.60;;;5.40;;
50591;SDS011;36548;50.506;30.834;2022-08-21T04:53:58;13.65;;;5.32;;
50591;SDS011;36548;50.506;30.834;2022-08-21T04:55:15;10.97;;;5.05;;
50591;SDS011;36548;50.506;30.834;2022-08-21T04:56:29;14.77;;;4.93;;
50591;SDS011;36548;50.506;30.834;2022-08-21T04:57:47;16.60;;;5.33;;
50591;SDS011;36548;50.506;30.834;2022-08-21T04:59:00;12.83;;;5.27;;
50591;SDS011;36548;50.506;30.834;2022-08-21T05:00:30;12.83;;;4.92;;
50591;SDS011;36548;50.506;30.834;2022-08-21T05:01:41;15.35;;;5.10;;
50591;SDS011;36548;50.506;30.834;2022-08-21T05:03:10;14.12;;;5.03;;
50591;SDS011;36548;50.506;30.834;2022-08-21T05:04:28;15.43;;;5.03;;
50591;SDS011;36548;50.506;30.834;2022-08-21T05:05:39;10.57;;;4.67;;
50591;SDS011;36548;50.506;30.834;2022-08-21T05:06:50;15.93;;;5.52;;
50591;SDS011;36548;50.506;30.834;2022-08-21T05:08:07;17.87;;;5.30;;
50591;SDS011;36548;50.506;30.834;2022-08-21T05:09:19;12.95;;;4.82;;
50591;SDS011;36548;50.506;30.834;2022-08-21T05:10:36;11.75;;;4.60;;
50591;SDS011;36548;50.506;30.834;2022-08-21T05:11:46;9.70;;;4.60;;
50591;SDS011;36548;50.506;30.834;2022-08-21T05:13:15;19.07;;;4.82;;
50591;SDS011;36548;50.506;30.834;2022-08-21T05:14:31;13.95;;;5.15;;
50591;SDS011;36548;50.506;30.834;2022-08-21T05:15:41;12.82;;;5.15;;
50591;SDS011;36548;50.506;30.834;2022-08-21T05:16:56;14.97;;;4.82;;
50591;SDS011;36548;50.506;30.834;2022-08-21T05:18:06;20.60;;;5.40;;
50591;SDS011;36548;50.506;30.834;2022-08-21T05:19:33;10.00;;;4.87;;
50591;SDS011;36548;50.506;30.834;2022-08-21T05:20:43;14.45;;;4.82;;
50591;SDS011;36548;50.506;30.834;2022-08-21T05:21:54;14.73;;;5.52;;
50591;SDS011;36548;50.506;30.834;2022-08-21T05:23:10;13.03;;;4.97;;
50591;SDS011;36548;50.506;30.834;2022-08-21T05:24:27;13.10;;;4.00;;
50591;SDS011;36548;50.506;30.834;2022-08-21T05:25:38;12.67;;;4.28;;
50591;SDS011;36548;50.506;30.834;2022-08-21T05:26:48;13.62;;;5.30;;
50591;SDS011;36548;50.506;30.834;2022-08-21T05:27:57;20.30;;;6.47;;
50591;SDS011;36548;50.506;30.834;2022-08-21T05:29:08;13.66;;;4.64;;
50591;SDS011;36548;50.506;30.834;2022-08-21T05:30:25;13.45;;;4.92;;
50591;SDS011;36548;50.506;30.834;2022-08-21T05:31:34;13.67;;;4.67;;
50591;SDS011;36548;50.506;30.834;2022-08-21T05:32:43;10.92;;;4.28;;
50591;SDS011;36548;50.506;30.834;2022-08-21T05:33:53;15.85;;;4.92;;
50591;SDS011;36548;50.506;30.834;2022-08-21T05:35:08;13.82;;;5.32;;
50591;SDS011;36548;50.506;30.834;2022-08-21T05:36:18;15.60;;;4.80;;
50591;SDS011;36548;50.506;30.834;2022-08-21T05:37:28;20.15;;;5.20;;
50591;SDS011;36548;50.506;30.834;2022-08-21T05:38:38;17.15;;;4.58;;
50591;SDS011;36548;50.506;30.834;2022-08-21T05:40:06;14.62;;;5.05;;
50591;SDS011;36548;50.506;30.834;2022-08-21T05:41:18;15.43;;;4.45;;
50591;SDS011;36548;50.506;30.834;2022-08-21T05:42:29;15.03;;;5.12;;
50591;SDS011;36548;50.506;30.834;2022-08-21T05:43:39;13.50;;;4.73;;
50591;SDS011;36548;50.506;30.834;2022-08-21T05:44:54;15.55;;;4.45;;
50591;SDS011;36548;50.506;30.834;2022-08-21T05:46:05;11.57;;;4.32;;
50591;SDS011;36548;50.506;30.834;2022-08-21T05:47:22;15.90;;;5.10;;
50591;SDS011;36548;50.506;30.834;2022-08-21T05:48:32;14.42;;;4.43;;
50591;SDS011;36548;50.506;30.834;2022-08-21T05:50:00;15.37;;;5.43;;
50591;SDS011;36548;50.506;30.834;2022-08-21T05:51:15;14.62;;;4.83;;
50591;SDS011;36548;50.506;30.834;2022-08-21T05:53:42;11.28;;;4.45;;
50591;SDS011;36548;50.506;30.834;2022-08-21T05:54:52;12.35;;;4.50;;
50591;SDS011;36548;50.506;30.834;2022-08-21T05:56:02;15.15;;;4.65;;
50591;SDS011;36548;50.506;30.834;2022-08-21T05:57:13;15.77;;;4.98;;
50591;SDS011;36548;50.506;30.834;2022-08-21T05:58:41;13.18;;;4.93;;
50591;SDS011;36548;50.506;30.834;2022-08-21T05:59:50;20.50;;;5.38;;
50591;SDS011;36548;50.506;30.834;2022-08-21T06:01:01;12.70;;;4.95;;
50591;SDS011;36548;50.506;30.834;2022-08-21T06:02:18;15.10;;;5.08;;
50591;SDS011;36548;50.506;30.834;2022-08-21T06:03:29;15.52;;;5.10;;
50591;SDS011;36548;50.506;30.834;2022-08-21T06:04:47;10.90;;;4.90;;
50591;SDS011;36548;50.506;30.834;2022-08-21T06:05:57;11.20;;;4.80;;
50591;SDS011;36548;50.506;30.834;2022-08-21T06:07:08;15.37;;;4.45;;
50591;SDS011;36548;50.506;30.834;2022-08-21T06:08:18;16.53;;;4.78;;
50591;SDS011;36548;50.506;30.834;2022-08-21T06:09:28;18.20;;;5.08;;
50591;SDS011;36548;50.506;30.834;2022-08-21T06:10:37;13.00;;;4.83;;
50591;SDS011;36548;50.506;30.834;2022-08-21T06:13:03;14.77;;;5.02;;
50591;SDS011;36548;50.506;30.834;2022-08-21T06:14:16;15.35;;;4.75;;
50591;SDS011;36548;50.506;30.834;2022-08-21T06:15:31;17.40;;;5.48;;
50591;SDS011;36548;50.506;30.834;2022-08-21T06:16:42;12.20;;;4.77;;
50591;SDS011;36548;50.506;30.834;2022-08-21T06:18:10;19.23;;;5.82;;
50591;SDS011;36548;50.506;30.834;2022-08-21T06:19:25;15.00;;;4.95;;
50591;SDS011;36548;50.506;30.834;2022-08-21T06:20:36;12.40;;;4.60;;
50591;SDS011;36548;50.506;30.834;2022-08-21T06:21:52;16.07;;;4.75;;
50591;SDS011;36548;50.506;30.834;2022-08-21T06:23:02;17.05;;;5.17;;
50591;SDS011;36548;50.506;30.834;2022-08-21T06:24:30;17.32;;;4.64;;
50591;SDS011;36548;50.506;30.834;2022-08-21T06:25:45;15.08;;;5.12;;
50591;SDS011;36548;50.506;30.834;2022-08-21T06:28:07;15.18;;;4.58;;
50591;SDS011;36548;50.506;30.834;2022-08-21T06:29:18;13.73;;;4.27;;
50591;SDS011;36548;50.506;30.834;2022-08-21T06:30:34;16.93;;;5.00;;
50591;SDS011;36548;50.506;30.834;2022-08-21T06:31:45;16.02;;;5.35;;
50591;SDS011;36548;50.506;30.834;2022-08-21T06:32:58;17.67;;;4.95;;
50591;SDS011;36548;50.506;30.834;2022-08-21T06:34:08;16.43;;;4.58;;
50591;SDS011;36548;50.506;30.834;2022-08-21T06:35:19;19.67;;;5.10;;
50591;SDS011;36548;50.506;30.834;2022-08-21T06:36:53;13.42;;;4.82;;
50591;SDS011;36548;50.506;30.834;2022-08-21T06:38:04;20.63;;;5.28;;
50591;SDS011;36548;50.506;30.834;2022-08-21T06:39:14;15.72;;;5.10;;
50591;SDS011;36548;50.506;30.834;2022-08-21T06:40:29;10.60;;;4.78;;
50591;SDS011;36548;50.506;30.834;2022-08-21T06:41:40;15.82;;;5.30;;
50591;SDS011;36548;50.506;30.834;2022-08-21T06:42:50;14.58;;;4.93;;
50591;SDS011;36548;50.506;30.834;2022-08-21T06:44:00;16.96;;;5.36;;
50591;SDS011;36548;50.506;30.834;2022-08-21T06:45:10;19.40;;;5.30;;
50591;SDS011;36548;50.506;30.834;2022-08-21T06:46:20;20.50;;;6.35;;
50591;SDS011;36548;50.506;30.834;2022-08-21T06:47:35;17.02;;;5.22;;
50591;SDS011;36548;50.506;30.834;2022-08-21T06:48:45;14.37;;;4.87;;
50591;SDS011;36548;50.506;30.834;2022-08-21T06:49:54;13.93;;;4.13;;
50591;SDS011;36548;50.506;30.834;2022-08-21T06:51:09;13.93;;;4.53;;
50591;SDS011;36548;50.506;30.834;2022-08-21T06:52:20;15.42;;;4.65;;
50591;SDS011;36548;50.506;30.834;2022-08-21T06:53:30;20.75;;;4.85;;
50591;SDS011;36548;50.506;30.834;2022-08-21T06:54:40;16.35;;;5.05;;
50591;SDS011;36548;50.506;30.834;2022-08-21T06:55:49;14.72;;;4.43;;
50591;SDS011;36548;50.506;30.834;2022-08-21T06:57:24;14.12;;;4.35;;
50591;SDS011;36548;50.506;30.834;2022-08-21T06:58:35;14.23;;;4.60;;
50591;SDS011;36548;50.506;30.834;2022-08-21T06:59:45;17.05;;;5.35;;
50591;SDS011;36548;50.506;30.834;2022-08-21T07:00:54;17.25;;;4.10;;
50591;SDS011;36548;50.506;30.834;2022-08-21T07:02:07;15.03;;;4.80;;
50591;SDS011;36548;50.506;30.834;2022-08-21T07:04:50;16.50;;;4.95;;
50591;SDS011;36548;50.506;30.834;2022-08-21T07:06:05;16.88;;;4.55;;
50591;SDS011;36548;50.506;30.834;2022-08-21T07:07:16;15.47;;;4.92;;
50591;SDS011;36548;50.506;30.834;2022-08-21T07:08:51;13.32;;;4.85;;
50591;SDS011;36548;50.506;30.834;2022-08-21T07:10:03;14.88;;;4.45;;
50591;SDS011;36548;50.506;30.834;2022-08-21T07:11:30;17.95;;;4.95;;
50591;SDS011;36548;50.506;30.834;2022-08-21T07:12:42;17.68;;;4.98;;
50591;SDS011;36548;50.506;30.834;2022-08-21T07:13:57;11.92;;;4.77;;
50591;SDS011;36548;50.506;30.834;2022-08-21T07:15:07;14.97;;;5.17;;
50591;SDS011;36548;50.506;30.834;2022-08-21T07:16:23;18.03;;;4.72;;
50591;SDS011;36548;50.506;30.834;2022-08-21T07:17:33;19.77;;;5.30;;
50591;SDS011;36548;50.506;30.834;2022-08-21T07:19:01;15.30;;;4.15;;
50591;SDS011;36548;50.506;30.834;2022-08-21T07:20:12;14.73;;;4.32;;
50591;SDS011;36548;50.506;30.834;2022-08-21T07:21:21;16.52;;;4.48;;
50591;SDS011;36548;50.506;30.834;2022-08-21T07:22:33;15.90;;;4.44;;
50591;SDS011;36548;50.506;30.834;2022-08-21T07:23:50;15.42;;;4.72;;
50591;SDS011;36548;50.506;30.834;2022-08-21T07:25:00;13.72;;;4.25;;
50591;SDS011;36548;50.506;30.834;2022-08-21T07:26:10;14.55;;;4.40;;
50591;SDS011;36548;50.506;30.834;2022-08-21T07:27:20;18.28;;;4.45;;
50591;SDS011;36548;50.506;30.834;2022-08-21T07:28:31;18.07;;;4.63;;